Airfield :
LOGIN :

Register | Disclaimer

   EN    FR    IT 

 










Legend :    VFR   Marginal VFR   IFR   Intensive IFR   Very Intensive IFR
Visi :
Ceiling :
>= 8 km
>= 3000ft
5 to 8 km
1000 to 3000 ft
1500m to 5 km
500 to 1000 ft
800 to 1500m
200 to 500 ft
< 800m
< 200 ft
Symbols :   Thunderstorms  Fog  Heavy snow  Heavy precipitations  Wind > 20 kt
SIGMETs :     Misc.  Thunderstorms  Icing  Turbulence  Mountain Waves  Volcanic Ashes







- Airport Elevation : 405 ft
- IATA code : SUJ


LRSM - Satu Mare

CURRENT METAR :
  • 171100Z VRB03KT CAVOK 29/16 Q1015

EXPIRED METARs :
  • 171030Z 16005KT 100V210 CAVOK 29/16 Q1016
  • 171000Z VRB04KT CAVOK 28/16 Q1016
  • 170930Z 25005KT 200V300 CAVOK 28/16 Q1016
  • 170900Z 17003KT 090V230 CAVOK 28/16 Q1016
  • 170830Z VRB03KT CAVOK 26/16 Q1016

TAF TAF LRSM
Valid from the 17 at 09:00 until the 17 at 18:00 UTC


170800Z 1709/1718 VRB04KT CAVOK
TEMPO 1712/1716 VRB20G30KT 3000 TSRA BKN010 BKN030CB
No reported NOTAMs for that airfield.



MET'MAP, your aeronautical weather chart ! - Copyright ORBIFLY December 2007 - Disclaimer

ORBIFLY MET'MAP TEAM :

Programming & Development : Alexandra Zaïnal
Concept & Development : Baudouin d'Aumeries
Co-Development & Prog : Marc-Olivier Méhu
Technical & hardware support : Manuel Goepfert

Contact : metmap@orbifly.com




SOURCES & CREDITS :

   NOAA